Time;durP1;ratioP1;P1;durP2;ratioP2;P2;SDS_P1;SDS_P2;PMS_P1;PMS_P2;Temp;Humidity;BMP_temperature;BMP_pressure;BME280_temperature;BME280_humidity;BME280_pressure;Samples;Min_cycle;Max_cycle;Signal;HPM_P1;HPM_P2
2022/04/19 00:00:20;;;;;;;4.07;1.77;;;;;;;6.03;52.09;100483.25;5040384;28;20040;-75
2022/04/19 00:02:46;;;;;;;3.38;1.70;;;;;;;6.05;51.77;100478.91;5041897;28;20041;-75
2022/04/19 00:05:11;;;;;;;4.28;2.20;;;;;;;6.07;52.30;100468.44;5039425;28;20041;-75
2022/04/19 00:07:37;;;;;;;4.32;2.10;;;;;;;6.08;52.09;100467.59;5042741;28;20095;-75
2022/04/19 00:10:07;;;;;;;3.65;2.00;;;;;;;6.01;52.75;100458.78;5040892;28;20025;-75
2022/04/19 00:12:32;;;;;;;3.97;1.98;;;;;;;6.01;52.68;100466.63;5041667;28;20033;-75
2022/04/19 00:14:58;;;;;;;4.55;2.22;;;;;;;6.07;52.80;100458.81;5039074;28;20044;-75
2022/04/19 00:17:24;;;;;;;3.45;1.98;;;;;;;6.12;52.81;100456.25;5041369;28;20041;-75
2022/04/19 00:19:49;;;;;;;5.13;1.98;;;;;;;6.21;53.21;100450.22;5040707;28;20037;-75
2022/04/19 00:22:14;;;;;;;4.57;2.17;;;;;;;6.31;52.84;100452.09;5039295;28;20068;-75
2022/04/19 00:24:40;;;;;;;3.60;1.85;;;;;;;6.40;53.07;100446.06;5042080;28;20048;-75
2022/04/19 00:27:05;;;;;;;3.97;1.80;;;;;;;6.48;52.71;100452.25;5039109;28;20056;-75
2022/04/19 00:29:31;;;;;;;4.70;2.10;;;;;;;6.49;53.04;100446.13;5039648;28;20037;-75
2022/04/19 00:31:56;;;;;;;6.32;2.30;;;;;;;6.52;53.03;100441.81;5040457;28;20045;-75
2022/04/19 00:34:22;;;;;;;4.57;2.40;;;;;;;6.56;53.19;100446.22;5052199;28;20079;-75
2022/04/19 00:36:47;;;;;;;3.53;1.77;;;;;;;6.64;52.71;100448.03;5041918;28;20037;-75
2022/04/19 00:39:12;;;;;;;3.88;2.00;;;;;;;6.67;52.92;100445.44;5044765;28;20044;-75
2022/04/19 00:41:38;;;;;;;4.80;2.17;;;;;;;6.68;53.25;100441.94;5043429;28;20041;-75
2022/04/19 00:44:03;;;;;;;4.63;2.22;;;;;;;6.66;53.82;100443.69;5043075;28;20115;-75
2022/04/19 00:46:28;;;;;;;3.95;2.00;;;;;;;6.62;53.87;100440.13;5040233;28;20491;-75
2022/04/19 00:48:54;;;;;;;4.32;2.22;;;;;;;6.43;54.71;100438.22;5045242;28;20534;-75
2022/04/19 00:51:23;;;;;;;4.93;2.50;;;;;;;6.24;55.62;100445.03;5055128;28;20084;-75
2022/04/19 00:53:49;;;;;;;5.38;2.20;;;;;;;6.23;55.62;100438.03;5044669;28;20086;-75
2022/04/19 00:56:15;;;;;;;5.35;2.35;;;;;;;6.26;55.64;100435.44;5040739;28;20037;-75
2022/04/19 00:58:41;;;;;;;4.30;2.00;;;;;;;6.22;55.45;100428.41;5043414;28;20082;-75
2022/04/19 01:01:06;;;;;;;6.22;2.28;;;;;;;6.25;54.97;100431.94;5054931;28;20451;-75
2022/04/19 01:03:32;;;;;;;6.25;2.13;;;;;;;6.31;54.79;100425.88;5044495;28;20064;-75
2022/04/19 01:06:04;;;;;;;3.28;1.63;;;;;;;6.32;54.21;100418.03;5043755;28;20041;-75
2022/04/19 01:08:30;;;;;;;4.43;2.15;;;;;;;6.33;54.67;100419.78;5054506;28;20033;-75
2022/04/19 01:13:56;;;;;;;4.80;2.00;;;;;;;6.40;53.84;100415.50;5043474;28;20031;-75
2022/04/19 01:16:23;;;;;;;3.88;1.80;;;;;;;6.44;53.63;100409.38;5054479;28;20034;-75
2022/04/19 01:18:50;;;;;;;5.55;1.98;;;;;;;6.38;55.45;100411.09;5075417;28;20033;-75
2022/04/19 01:21:15;;;;;;;5.68;2.20;;;;;;;6.40;55.40;100405.00;5041858;28;20060;-75
2022/04/19 01:23:41;;;;;;;5.05;2.35;;;;;;;6.46;55.47;100412.91;5044506;28;20502;-75
2022/04/19 01:26:07;;;;;;;5.68;2.83;;;;;;;6.43;56.34;100405.03;5054058;28;20037;-75
2022/04/19 01:28:35;;;;;;;5.90;3.05;;;;;;;6.48;56.55;100398.06;5075397;28;20033;-75
2022/04/19 01:31:03;;;;;;;5.30;2.60;;;;;;;6.47;56.83;100403.28;5040409;28;20037;-75
2022/04/19 01:33:37;;;;;;;6.90;2.70;;;;;;;6.42;57.61;100403.28;5057772;28;20705;-75
2022/04/19 01:36:09;;;;;;;5.47;2.67;;;;;;;6.46;57.77;100398.94;5043640;28;20043;-75
2022/04/19 01:38:34;;;;;;;5.72;2.65;;;;;;;6.50;57.29;100401.59;5039928;28;20033;-75
2022/04/19 01:40:59;;;;;;;5.80;2.28;;;;;;;6.52;57.34;100392.00;5042165;28;20040;-75
2022/04/19 01:43:44;;;;;;;6.15;2.85;;;;;;;6.60;56.64;100399.91;5056339;28;20045;-75
2022/04/19 01:46:10;;;;;;;5.35;2.95;;;;;;;6.58;56.45;100399.91;5041919;28;20079;-75
2022/04/19 01:48:36;;;;;;;6.28;2.83;;;;;;;6.45;58.10;100403.31;5055109;28;20033;-75
2022/04/19 01:51:01;;;;;;;6.30;2.65;;;;;;;6.43;57.64;100397.16;5043410;28;20509;-75
2022/04/19 01:53:27;;;;;;;5.00;3.03;;;;;;;6.52;56.79;100397.25;5039600;28;20037;-75
2022/04/19 01:55:54;;;;;;;5.00;2.78;;;;;;;6.44;57.49;100401.53;5041877;28;20036;-75
2022/04/19 01:58:38;;;;;;;6.95;2.97;;;;;;;6.53;56.39;100391.13;5041229;28;20655;-75
2022/04/19 02:01:05;;;;;;;7.20;2.60;;;;;;;6.58;56.96;100384.19;5040919;28;20033;-75
2022/04/19 02:03:31;;;;;;;4.85;2.47;;;;;;;6.61;56.71;100392.94;5055045;28;20033;-75
2022/04/19 02:05:56;;;;;;;5.13;2.80;;;;;;;6.54;56.64;100397.25;5043855;28;20090;-75
2022/04/19 02:08:23;;;;;;;6.05;3.00;;;;;;;6.41;57.75;100396.25;5073087;28;20029;-75
2022/04/19 02:10:49;;;;;;;5.03;2.65;;;;;;;6.45;57.82;100389.31;5041122;28;20047;-74
2022/04/19 02:13:14;;;;;;;5.05;2.40;;;;;;;6.52;57.40;100380.63;5037810;28;20033;-75
2022/04/19 02:15:43;;;;;;;5.60;2.47;;;;;;;6.54;57.04;100371.91;5043937;28;20051;-75
2022/04/19 02:18:22;;;;;;;5.53;2.70;;;;;;;6.52;57.83;100357.91;5054891;28;20447;-75
2022/04/19 02:20:47;;;;;;;4.88;2.33;;;;;;;6.59;57.13;100364.94;5049785;28;20036;-75
2022/04/19 02:23:13;;;;;;;5.20;2.63;;;;;;;6.66;56.97;100362.38;5040222;28;20041;-75
2022/04/19 02:25:39;;;;;;;5.13;2.50;;;;;;;6.66;57.39;100357.13;5045939;28;20040;-75
2022/04/19 02:28:10;;;;;;;6.70;3.47;;;;;;;6.47;58.80;100364.88;5074735;28;20065;-75
2022/04/19 02:30:39;;;;;;;5.90;3.03;;;;;;;6.37;58.93;100352.56;5039266;28;20033;-75
2022/04/19 02:33:10;;;;;;;6.50;3.60;;;;;;;6.35;59.19;100360.38;5040141;28;20040;-74
2022/04/19 02:35:38;;;;;;;7.50;3.58;;;;;;;6.11;60.93;100361.06;5036629;28;20033;-74
2022/04/19 02:38:04;;;;;;;6.53;3.60;;;;;;;6.26;59.39;100359.44;5047726;28;20392;-75
2022/04/19 02:40:36;;;;;;;7.32;3.83;;;;;;;6.24;59.53;100361.19;5039935;28;20025;-75
2022/04/19 02:43:03;;;;;;;7.45;3.63;;;;;;;6.19;59.45;100366.38;5054141;28;20511;-75
2022/04/19 02:45:29;;;;;;;9.23;4.40;;;;;;;6.09;59.79;100362.78;5042087;28;20119;-75
2022/04/19 02:48:03;;;;;;;8.75;4.97;;;;;;;6.12;59.60;100362.81;5072645;28;20389;-75
2022/04/19 02:50:49;;;;;;;9.57;5.55;;;;;;;6.04;60.20;100361.00;5039089;28;20059;-75
2022/04/19 02:53:15;;;;;;;9.45;5.75;;;;;;;5.93;59.91;100371.31;5074385;28;20424;-75
2022/04/19 02:55:41;;;;;;;7.50;4.07;;;;;;;5.84;60.05;100373.84;5038105;28;20060;-75
2022/04/19 02:58:07;;;;;;;10.43;4.55;;;;;;;5.77;59.68;100375.53;5042389;28;20403;-75
2022/04/19 03:00:35;;;;;;;8.93;4.35;;;;;;;5.62;60.32;100380.59;5036702;28;20044;-75
2022/04/19 03:03:00;;;;;;;9.32;4.60;;;;;;;5.53;60.62;100384.00;5048514;28;20519;-75
2022/04/19 03:05:26;;;;;;;8.50;4.15;;;;;;;5.44;61.25;100383.88;5035671;28;20403;-74
2022/04/19 03:07:52;;;;;;;7.10;3.53;;;;;;;5.35;61.68;100371.56;5045632;28;20048;-75
2022/04/19 03:10:17;;;;;;;8.10;3.80;;;;;;;5.30;61.38;100373.22;5041157;28;20109;-75
2022/04/19 03:12:44;;;;;;;6.30;3.50;;;;;;;5.25;61.56;100369.69;5037090;28;20033;-75
2022/04/19 03:15:18;;;;;;;5.70;3.13;;;;;;;5.16;61.41;100365.22;5055279;28;20033;-75
2022/04/19 03:17:45;;;;;;;5.40;3.17;;;;;;;5.10;61.74;100359.88;5039840;28;20439;-75
2022/04/19 03:20:12;;;;;;;6.60;3.70;;;;;;;4.98;62.55;100357.13;5074254;28;20589;-75
2022/04/19 03:28:10;;;;;;;6.70;2.75;;;;;;;4.93;62.40;100349.19;5039423;28;20036;-75
2022/04/19 03:30:36;;;;;;;5.03;2.97;;;;;;;5.04;61.93;100355.44;5040975;28;20685;-75
2022/04/19 03:33:02;;;;;;;5.30;2.88;;;;;;;5.14;61.99;100358.19;5052174;28;20033;-75
2022/04/19 03:35:28;;;;;;;6.57;2.92;;;;;;;5.24;61.35;100360.97;5070734;28;20040;-75
2022/04/19 03:37:53;;;;;;;4.78;2.38;;;;;;;5.30;61.82;100343.56;5048657;28;20474;-74
2022/04/19 03:40:19;;;;;;;5.60;2.90;;;;;;;5.34;62.04;100346.22;5038003;28;20030;-75
2022/04/19 03:42:44;;;;;;;6.45;2.78;;;;;;;5.33;61.82;100349.72;5041472;28;20495;-74
2022/04/19 03:45:10;;;;;;;6.43;3.00;;;;;;;5.41;61.71;100344.56;5041275;28;20030;-75
2022/04/19 03:47:36;;;;;;;4.90;3.17;;;;;;;5.35;61.90;100339.28;5038770;28;20091;-75
2022/04/19 03:50:03;;;;;;;7.95;3.20;;;;;;;5.33;62.16;100347.09;5037478;28;20037;-75
2022/04/19 03:52:31;;;;;;;4.45;2.85;;;;;;;5.36;61.49;100351.50;5040037;28;20029;-75
2022/04/19 03:54:57;;;;;;;6.03;3.10;;;;;;;5.30;62.22;100348.81;5053011;28;20080;-75
2022/04/19 03:57:24;;;;;;;8.05;3.08;;;;;;;5.30;62.05;100344.44;5041684;28;20062;-75
2022/04/19 03:59:49;;;;;;;5.07;3.00;;;;;;;5.27;62.04;100342.66;5039041;28;20029;-75
2022/04/19 04:02:16;;;;;;;6.75;2.75;;;;;;;5.24;62.36;100341.75;5039641;28;20040;-75
2022/04/19 04:04:42;;;;;;;5.78;3.30;;;;;;;5.36;62.09;100351.50;5054886;28;20036;-75
2022/04/19 04:07:07;;;;;;;6.40;3.25;;;;;;;5.44;61.87;100349.84;5041896;28;20506;-75
2022/04/19 04:09:35;;;;;;;6.35;3.17;;;;;;;5.51;61.58;100356.03;5077961;28;20435;-75
2022/04/19 04:12:02;;;;;;;6.50;3.25;;;;;;;5.56;61.29;100352.59;5043212;28;20087;-75
2022/04/19 04:14:28;;;;;;;8.05;3.55;;;;;;;5.62;60.94;100350.03;5044149;28;20090;-75
2022/04/19 04:16:55;;;;;;;6.82;3.42;;;;;;;5.60;61.18;100341.28;5061498;28;20056;-75
2022/04/19 04:19:20;;;;;;;6.45;3.42;;;;;;;5.57;61.08;100343.88;5044656;28;20499;-75
2022/04/19 04:21:46;;;;;;;6.47;2.83;;;;;;;5.53;61.66;100346.44;5055029;28;20041;-75
2022/04/19 04:24:11;;;;;;;6.38;3.47;;;;;;;5.48;61.90;100344.66;5049328;28;20048;-75
2022/04/19 04:26:41;;;;;;;5.20;2.95;;;;;;;5.59;61.62;100341.28;5041612;28;20029;-75
2022/04/19 04:29:06;;;;;;;8.02;3.28;;;;;;;5.62;61.22;100350.03;5057848;28;20029;-75
2022/04/19 04:31:33;;;;;;;6.10;2.95;;;;;;;5.57;61.15;100351.72;5043201;28;20033;-75
2022/04/19 04:33:59;;;;;;;8.25;3.08;;;;;;;5.45;61.52;100347.25;5056210;28;20037;-75
2022/04/19 04:36:25;;;;;;;7.93;3.20;;;;;;;5.33;62.44;100344.47;5045588;28;20396;-75
2022/04/19 04:38:51;;;;;;;6.63;3.05;;;;;;;5.21;62.38;100341.69;5040706;28;20026;-75
2022/04/19 04:41:26;;;;;;;5.90;3.53;;;;;;;5.09;62.71;100337.22;5041861;28;20045;-75
2022/04/19 04:43:53;;;;;;;7.78;3.15;;;;;;;4.93;63.50;100343.09;5056711;28;20032;-75
2022/04/19 04:51:46;;;;;;;6.15;3.42;;;;;;;4.72;64.05;100357.63;5040829;28;20037;-75
2022/04/19 04:54:11;;;;;;;6.32;3.45;;;;;;;4.63;64.83;100354.84;5077145;28;20052;-75
2022/04/19 04:56:37;;;;;;;8.32;4.85;;;;;;;4.60;65.09;100352.19;5054806;28;20041;-75
2022/04/19 04:59:03;;;;;;;6.00;3.55;;;;;;;4.60;64.83;100358.31;5075498;28;20045;-75
2022/04/19 05:01:30;;;;;;;6.15;3.55;;;;;;;4.59;64.57;100355.69;5040852;28;20397;-75
2022/04/19 05:03:56;;;;;;;6.65;3.78;;;;;;;4.60;64.30;100352.19;5057055;28;20044;-75
2022/04/19 05:06:22;;;;;;;7.43;3.30;;;;;;;4.57;64.87;100357.38;5045976;28;20028;-75
2022/04/19 05:08:47;;;;;;;7.03;3.10;;;;;;;4.52;65.04;100357.31;5075288;28;20040;-75
2022/04/19 05:11:15;;;;;;;6.03;3.38;;;;;;;4.55;65.08;100348.63;5046376;28;20484;-75
2022/04/19 05:13:41;;;;;;;5.05;2.95;;;;;;;4.57;65.17;100368.72;5042264;28;20060;-75
2022/04/19 05:16:06;;;;;;;8.18;3.95;;;;;;;4.59;65.53;100363.53;5044332;28;20068;-75
2022/04/19 05:18:32;;;;;;;7.30;3.88;;;;;;;4.65;65.34;100362.72;5054867;28;20503;-75
2022/04/19 05:20:58;;;;;;;7.50;3.30;;;;;;;4.69;65.24;100362.81;5049777;28;20124;-75
2022/04/19 05:23:24;;;;;;;6.65;3.42;;;;;;;4.76;64.66;100362.03;5040256;28;20088;-75
2022/04/19 05:25:50;;;;;;;8.25;3.25;;;;;;;4.83;64.71;100363.88;5043319;28;20438;-75
2022/04/19 05:28:16;;;;;;;5.38;3.00;;;;;;;4.86;64.91;100364.78;5074673;28;20044;-75
2022/04/19 05:30:42;;;;;;;7.25;3.40;;;;;;;4.98;64.71;100359.72;5041186;28;20025;-75
2022/04/19 05:33:07;;;;;;;6.22;3.25;;;;;;;5.11;64.62;100368.59;5076128;28;20126;-75
2022/04/19 05:35:33;;;;;;;8.18;3.53;;;;;;;5.31;63.88;100364.50;5043385;28;20036;-75
2022/04/19 05:37:59;;;;;;;5.70;3.05;;;;;;;5.47;63.24;100361.22;5042128;28;20040;-75
2022/04/19 05:40:28;;;;;;;5.50;3.50;;;;;;;5.60;62.71;100358.75;5057646;28;20380;-75
2022/04/19 05:42:54;;;;;;;6.57;2.80;;;;;;;5.73;62.80;100358.00;5039696;28;20048;-75
2022/04/19 05:45:20;;;;;;;5.72;3.08;;;;;;;5.85;62.21;100365.13;5056730;28;20060;-75
2022/04/19 05:47:46;;;;;;;6.57;3.00;;;;;;;5.88;62.20;100358.19;5041909;28;20064;-75
2022/04/19 05:50:11;;;;;;;6.20;3.30;;;;;;;6.02;61.51;100366.19;5055003;28;20112;-75
2022/04/19 05:52:37;;;;;;;6.82;3.10;;;;;;;6.06;61.31;100362.75;5043327;28;20060;-75
2022/04/19 05:55:07;;;;;;;5.53;2.83;;;;;;;6.09;61.31;100368.03;5043468;28;20041;-75
2022/04/19 05:57:34;;;;;;;6.93;3.17;;;;;;;6.18;60.83;100367.22;5041596;28;20112;-75
2022/04/19 05:59:59;;;;;;;6.05;3.13;;;;;;;6.29;60.39;100369.97;5054809;28;20117;-75
2022/04/19 06:05:09;;;;;;;7.05;3.17;;;;;;;6.36;59.90;100377.00;5055363;28;20114;-75
2022/04/19 06:07:42;;;;;;;7.95;3.15;;;;;;;6.43;59.49;100373.56;5072097;28;20060;-75
2022/04/19 06:10:09;;;;;;;6.50;3.97;;;;;;;6.46;59.60;100380.56;5037545;28;20029;-75
2022/04/19 06:12:35;;;;;;;10.25;3.35;;;;;;;6.58;59.26;100384.19;5049326;28;20037;-75
2022/04/19 06:15:03;;;;;;;5.10;2.95;;;;;;;6.56;59.14;100385.91;5039332;28;20518;-75
2022/04/19 06:17:32;;;;;;;7.65;3.60;;;;;;;6.59;58.96;100385.91;5042708;28;20557;-75
2022/04/19 06:20:02;;;;;;;8.02;3.50;;;;;;;6.59;58.98;100395.53;5050434;28;20044;-75
2022/04/19 06:22:29;;;;;;;7.22;3.05;;;;;;;6.60;58.71;100392.03;5038420;28;20048;-75
2022/04/19 06:25:01;;;;;;;7.88;3.60;;;;;;;6.68;58.21;100397.34;5043796;28;20025;-75
2022/04/19 06:27:26;;;;;;;6.20;3.53;;;;;;;6.79;58.48;100398.31;5040779;28;20045;-75
2022/04/19 06:29:52;;;;;;;8.18;4.00;;;;;;;6.89;57.22;100396.63;5058242;28;20063;-75
2022/04/19 06:32:20;;;;;;;7.03;3.55;;;;;;;7.05;56.89;100397.59;5040486;28;20499;-75
2022/04/19 06:34:49;;;;;;;7.53;2.95;;;;;;;7.17;56.67;100381.91;5054073;28;20036;-75
2022/04/19 06:37:18;;;;;;;6.38;3.08;;;;;;;7.24;54.93;100392.47;5074698;28;20082;-75
2022/04/19 06:39:49;;;;;;;6.72;3.40;;;;;;;7.32;55.32;100399.50;5073747;28;20231;-75
2022/04/19 06:42:15;;;;;;;6.00;3.20;;;;;;;7.22;55.26;100395.94;5038945;28;20041;-75
2022/04/19 06:44:59;;;;;;;6.28;3.00;;;;;;;7.09;55.01;100395.00;5041782;28;20052;-75
2022/04/19 06:47:27;;;;;;;6.35;3.25;;;;;;;7.07;55.33;100395.84;5039092;28;20030;-75
2022/04/19 06:49:57;;;;;;;6.22;3.10;;;;;;;6.96;55.62;100395.78;5055129;28;20029;-75
2022/04/19 06:52:24;;;;;;;6.03;3.15;;;;;;;7.00;55.96;100387.97;5040058;28;20041;-75
2022/04/19 06:54:49;;;;;;;6.80;3.63;;;;;;;7.06;55.44;100386.25;5074303;28;20031;-75
2022/04/19 06:57:15;;;;;;;5.90;3.45;;;;;;;7.16;54.99;100385.44;5038872;28;20033;-75
2022/04/19 06:59:40;;;;;;;5.28;3.08;;;;;;;7.21;54.80;100387.22;5042803;28;20040;-75
2022/04/19 07:02:05;;;;;;;7.13;3.17;;;;;;;7.25;54.37;100394.22;5052393;28;20049;-75
2022/04/19 07:04:33;;;;;;;6.65;3.28;;;;;;;7.35;54.14;100378.50;5041993;28;20044;-75
2022/04/19 07:07:03;;;;;;;6.70;3.30;;;;;;;7.41;53.84;100386.41;5038393;28;20029;-75
2022/04/19 07:09:29;;;;;;;5.55;2.92;;;;;;;7.39;53.40;100378.53;5040705;28;20025;-76
2022/04/19 07:11:57;;;;;;;8.98;3.50;;;;;;;7.52;53.42;100381.19;5053224;28;20063;-75
2022/04/19 07:14:25;;;;;;;5.68;2.70;;;;;;;7.71;53.22;100385.66;5058331;28;20037;-75
2022/04/19 07:16:58;;;;;;;7.13;3.33;;;;;;;7.93;51.79;100388.34;5040807;28;20064;-75
2022/04/19 07:19:25;;;;;;;6.63;3.20;;;;;;;8.21;51.47;100389.28;5039316;28;20051;-75
2022/04/19 07:27:27;;;;;;;5.95;3.17;;;;;;;9.26;48.30;100379.56;5054246;28;20045;-75
2022/04/19 07:29:52;;;;;;;6.15;2.72;;;;;;;9.60;47.01;100375.91;5041154;28;20073;-75
2022/04/19 07:32:18;;;;;;;6.47;3.42;;;;;;;9.79;45.67;100381.06;5052085;28;20075;-75
2022/04/19 07:34:53;;;;;;;5.07;2.83;;;;;;;10.00;45.41;100375.69;5074751;28;20068;-75
2022/04/19 07:37:19;;;;;;;7.70;3.60;;;;;;;10.15;43.88;100379.97;5051517;28;20072;-75
2022/04/19 07:39:45;;;;;;;6.57;2.90;;;;;;;10.19;44.65;100387.00;5072643;28;20441;-75
2022/04/19 07:42:11;;;;;;;9.05;3.33;;;;;;;10.44;43.95;100386.84;5054597;28;20033;-75
2022/04/19 07:44:36;;;;;;;7.40;3.38;;;;;;;10.44;42.98;100382.44;5045927;28;20507;-75
2022/04/19 07:47:02;;;;;;;6.60;3.03;;;;;;;10.56;42.77;100389.38;5042055;28;20112;-76
2022/04/19 07:49:28;;;;;;;6.80;3.35;;;;;;;10.72;41.79;100387.50;5044470;28;20029;-75
2022/04/19 07:51:54;;;;;;;6.47;2.90;;;;;;;11.14;42.42;100380.03;5056621;28;20483;-75
2022/04/19 07:54:20;;;;;;;5.90;3.35;;;;;;;11.47;41.04;100384.03;5060995;28;20025;-75
2022/04/19 07:56:47;;;;;;;5.25;2.90;;;;;;;11.36;41.29;100381.53;5041952;28;20380;-75
2022/04/19 07:59:12;;;;;;;6.45;2.70;;;;;;;11.51;41.24;100380.47;5044256;28;20040;-75
2022/04/19 08:01:38;;;;;;;5.40;2.70;;;;;;;11.41;40.67;100379.69;5076466;28;20511;-76
2022/04/19 08:04:03;;;;;;;6.90;2.90;;;;;;;11.43;39.88;100381.47;5042450;28;20455;-76
2022/04/19 08:06:30;;;;;;;7.50;2.80;;;;;;;11.52;40.82;100376.91;5057702;28;20056;-76
2022/04/19 08:08:55;;;;;;;4.78;2.55;;;;;;;11.57;39.70;100371.59;5045496;28;20339;-76
2022/04/19 08:11:21;;;;;;;4.85;2.67;;;;;;;11.55;39.57;100368.06;5041906;28;20450;-76
2022/04/19 08:13:48;;;;;;;5.32;2.83;;;;;;;11.80;39.43;100372.16;5057206;28;20030;-76
2022/04/19 08:16:13;;;;;;;7.40;2.90;;;;;;;12.14;39.52;100374.34;5077830;28;20039;-76
2022/04/19 08:18:40;;;;;;;7.05;2.97;;;;;;;12.30;38.70;100366.19;5041597;28;20025;-74
2022/04/19 08:21:05;;;;;;;4.15;2.42;;;;;;;12.32;38.82;100370.56;5042982;28;20028;-76
2022/04/19 08:23:31;;;;;;;5.07;2.35;;;;;;;12.11;37.62;100373.53;5056547;28;20051;-75
2022/04/19 08:26:00;;;;;;;6.53;2.67;;;;;;;11.87;37.80;100378.28;5077970;28;20403;-75
2022/04/19 08:28:26;;;;;;;4.97;2.47;;;;;;;11.59;38.54;100373.31;5057063;28;20030;-76
2022/04/19 08:30:52;;;;;;;6.05;2.58;;;;;;;11.57;38.93;100368.94;5051310;28;20040;-76
2022/04/19 08:33:23;;;;;;;4.10;2.53;;;;;;;11.67;38.34;100370.56;5041175;28;20121;-76
2022/04/19 08:35:48;;;;;;;5.45;2.92;;;;;;;11.82;39.72;100375.66;5057573;28;20597;-75
2022/04/19 08:38:14;;;;;;;7.93;5.30;;;;;;;11.94;39.38;100374.63;5043538;28;20033;-76
2022/04/19 08:40:39;;;;;;;9.50;5.63;;;;;;;12.29;39.84;100375.91;5056611;28;20454;-75
2022/04/19 08:43:05;;;;;;;8.30;3.20;;;;;;;12.23;38.74;100378.63;5052048;28;20028;-76
2022/04/19 08:45:31;;;;;;;4.57;2.42;;;;;;;11.72;38.57;100374.03;5042318;28;20044;-76
2022/04/19 08:47:58;;;;;;;6.93;3.10;;;;;;;11.29;39.84;100378.97;5045113;28;20131;-75
2022/04/19 08:50:24;;;;;;;6.18;2.80;;;;;;;11.43;39.99;100373.53;5047989;28;20108;-76
2022/04/19 08:57:29;;;;;;;6.57;2.70;;;;;;;11.42;39.33;100383.22;5043594;28;20400;-76
2022/04/19 08:58:19;;;;;;;5.72;2.42;;;;;;;11.17;39.63;100382.63;5043382;28;20040;-76
2022/04/19 09:00:44;;;;;;;4.80;3.17;;;;;;;11.05;40.47;100374.84;5042410;28;20049;-76
2022/04/19 09:03:10;;;;;;;4.85;2.67;;;;;;;11.21;40.74;100384.34;5044682;28;20048;-75
2022/04/19 09:05:49;;;;;;;9.25;4.40;;;;;;;11.03;40.44;100374.88;5063499;23;20048;-81
2022/04/19 09:08:14;;;;;;;6.22;2.90;;;;;;;11.24;40.72;100381.69;5054575;28;20045;-81
2022/04/19 09:10:40;;;;;;;7.80;2.97;;;;;;;11.31;40.47;100375.41;5051749;28;20088;-81
2022/04/19 09:13:07;;;;;;;5.68;2.88;;;;;;;11.43;40.43;100377.06;5036043;28;20037;-81
2022/04/19 09:15:36;;;;;;;7.50;2.83;;;;;;;11.36;40.00;100378.88;5037221;28;20127;-81
2022/04/19 09:18:02;;;;;;;10.02;2.63;;;;;;;11.39;38.77;100386.75;5047205;28;20046;-81
2022/04/19 09:20:28;;;;;;;5.85;2.60;;;;;;;11.35;39.75;100374.50;5034999;28;20029;-81
2022/04/19 09:23:20;;;;;;;5.55;2.80;;;;;;;11.47;39.12;100378.75;5032300;28;20034;-81
2022/04/19 09:25:49;;;;;;;6.40;2.42;;;;;;;11.43;38.27;100368.25;5031836;28;20049;-80
2022/04/19 09:28:20;;;;;;;6.90;2.25;;;;;;;11.55;38.04;100360.16;5046733;28;20042;-82
2022/04/19 09:30:51;;;;;;;4.43;2.25;;;;;;;11.76;36.75;100372.22;5038078;28;20101;-81
2022/04/19 09:33:21;;;;;;;4.85;2.38;;;;;;;11.97;37.38;100376.34;5029447;28;20504;-82
2022/04/19 09:36:02;;;;;;;4.65;2.08;;;;;;;11.66;36.02;100379.41;5018630;28;20105;-80
2022/04/19 09:38:38;;;;;;;14.98;2.55;;;;;;;11.43;37.03;100376.19;5029915;28;20034;-80
2022/04/19 09:41:05;;;;;;;4.72;2.30;;;;;;;11.53;36.29;100381.34;5045215;28;20041;-81
2022/04/19 09:43:32;;;;;;;4.43;2.03;;;;;;;11.79;36.74;100375.72;5029346;28;20040;-81
2022/04/19 09:46:05;;;;;;;9.10;2.40;;;;;;;12.03;35.72;100373.66;5033458;28;20040;-81
2022/04/19 09:48:36;;;;;;;6.25;2.50;;;;;;;12.07;36.52;100370.91;5047887;28;20041;-81
2022/04/19 09:51:04;;;;;;;5.28;2.20;;;;;;;12.25;36.74;100367.13;5031508;28;20057;-81
2022/04/19 09:53:49;;;;;;;4.35;2.38;;;;;;;12.06;35.92;100355.94;5048827;28;20136;-81
2022/04/19 09:56:20;;;;;;;5.20;2.13;;;;;;;12.15;36.09;100376.09;5013370;28;20084;-81
2022/04/19 09:58:47;;;;;;;6.43;2.28;;;;;;;12.23;36.41;100360.97;5031189;28;20040;-82
2022/04/19 10:09:33;;;;;;;3.35;1.50;;;;;;;12.76;35.35;100349.50;5048470;28;20112;-82
2022/04/19 10:12:00;;;;;;;4.93;2.05;;;;;;;12.86;35.13;100340.50;5030368;28;20038;-82
2022/04/19 10:14:26;;;;;;;4.95;1.95;;;;;;;13.10;35.55;100355.06;5031343;28;20480;-81
2022/04/19 10:16:52;;;;;;;5.03;1.60;;;;;;;13.29;34.88;100358.25;5031953;28;20060;-82
2022/04/19 10:19:19;;;;;;;4.07;1.88;;;;;;;13.22;34.35;100348.66;5033602;28;20041;-82
2022/04/19 10:21:45;;;;;;;4.57;1.75;;;;;;;13.26;34.86;100363.59;5034020;28;20033;-82
2022/04/19 10:24:13;;;;;;;4.97;1.63;;;;;;;13.04;33.76;100371.94;5046619;28;20038;-82
2022/04/19 10:26:46;;;;;;;3.50;1.50;;;;;;;13.20;33.93;100359.25;5030642;28;20843;-81
2022/04/19 10:29:28;;;;;;;;;;;;;;;13.55;33.02;100363.91;5033148;28;20041;-81
2022/04/19 10:32:01;;;;;;;4.65;1.60;;;;;;;14.05;32.74;100357.50;5033119;28;19937;-81
2022/04/19 10:34:29;;;;;;;3.13;1.35;;;;;;;14.52;32.88;100348.41;5030985;28;20120;-81
2022/04/19 10:37:00;;;;;;;3.90;1.60;;;;;;;14.08;32.61;100358.31;5046883;28;20040;-81
2022/04/19 10:39:32;;;;;;;4.30;2.00;;;;;;;13.95;33.31;100356.84;5045428;28;20034;-81
2022/04/19 10:42:00;;;;;;;2.63;1.35;;;;;;;14.17;33.57;100358.09;5029212;28;20052;-80
2022/04/19 10:44:38;;;;;;;3.03;1.20;;;;;;;13.82;31.96;100350.94;5028498;28;20042;-81
2022/04/19 10:47:03;;;;;;;2.10;1.08;;;;;;;13.68;32.79;100353.03;5034530;28;20057;-82
2022/04/19 10:49:29;;;;;;;3.53;1.27;;;;;;;13.53;32.93;100357.75;5048144;28;20111;-82
2022/04/19 10:52:00;;;;;;;2.47;1.20;;;;;;;13.42;32.94;100356.25;5034688;28;20037;-82
2022/04/19 10:55:17;;;;;;;4.03;1.30;;;;;;;13.94;32.25;100350.69;5031677;28;20042;-81
2022/04/19 11:00:31;;;;;;;3.78;2.00;;;;;;;14.37;32.34;100354.94;5045839;28;20051;-81
2022/04/19 11:02:58;;;;;;;3.83;1.70;;;;;;;14.64;31.52;100358.72;5031362;28;20029;-81
2022/04/19 11:05:44;;;;;;;5.22;1.58;;;;;;;14.80;30.85;100347.69;5048801;28;20041;-81
2022/04/19 11:08:25;;;;;;;2.70;1.25;;;;;;;15.23;30.82;100336.78;5044856;28;20097;-82
2022/04/19 11:10:56;;;;;;;2.63;1.23;;;;;;;15.49;29.71;100337.81;5033326;28;20026;-81
2022/04/19 11:13:23;;;;;;;5.18;1.40;;;;;;;15.68;29.80;100339.00;5045854;28;20040;-81
2022/04/19 11:15:57;;;;;;;3.97;1.70;;;;;;;15.92;29.30;100342.72;5031237;28;20048;-82
2022/04/19 11:18:33;;;;;;;3.20;1.45;;;;;;;16.26;28.43;100351.44;5028220;28;20091;-81
2022/04/19 11:21:00;;;;;;;3.33;1.40;;;;;;;16.27;28.54;100342.53;5031677;28;20038;-80
2022/04/19 11:23:29;;;;;;;3.60;1.13;;;;;;;16.40;28.37;100338.53;5036016;28;20045;-82
2022/04/19 11:25:55;;;;;;;2.63;1.08;;;;;;;16.62;27.80;100344.03;5049536;28;20092;-82
2022/04/19 11:28:29;;;;;;;3.45;1.30;;;;;;;16.52;27.96;100343.47;5032465;28;20033;-82
2022/04/19 11:30:54;;;;;;;2.35;1.20;;;;;;;16.36;27.89;100344.91;5048600;28;20071;-80
2022/04/19 11:33:24;;;;;;;3.03;1.20;;;;;;;16.04;28.32;100353.94;5031056;28;20129;-82
2022/04/19 11:36:00;;;;;;;2.60;1.10;;;;;;;16.27;28.35;100343.41;5305581;22;20081;-82
2022/04/19 11:38:27;;;;;;;3.83;1.75;;;;;;;16.26;28.80;100349.66;5006733;28;20035;-82
2022/04/19 11:49:07;;;;;;;2.97;1.30;;;;;;;16.11;29.13;100344.81;5008456;28;20521;-81
2022/04/19 11:51:36;;;;;;;4.00;2.17;;;;;;;16.47;28.18;100340.06;5001577;28;20038;-82
2022/04/19 11:54:03;;;;;;;4.60;1.60;;;;;;;16.68;27.34;100326.94;5012370;28;20034;-82
2022/04/19 11:56:29;;;;;;;3.90;2.00;;;;;;;16.67;28.07;100342.06;5009185;28;20128;-82
2022/04/19 11:58:58;;;;;;;4.13;1.42;;;;;;;16.06;28.12;100341.41;5012891;28;20563;-81
2022/04/19 12:01:23;;;;;;;2.67;1.20;;;;;;;15.65;28.44;100339.09;5017084;28;20477;-82
2022/04/19 12:03:48;;;;;;;3.85;1.42;;;;;;;15.45;28.96;100341.47;5001689;28;20065;-82
2022/04/19 12:06:19;;;;;;;4.03;1.50;;;;;;;15.01;29.83;100327.66;5002187;28;20038;-82
2022/04/19 12:08:49;;;;;;;3.28;1.50;;;;;;;15.45;29.58;100330.84;5001878;28;20053;-81
2022/04/19 12:11:17;;;;;;;4.10;1.65;;;;;;;15.55;29.46;100332.31;5011245;28;20202;-81
2022/04/19 12:13:44;;;;;;;3.25;1.58;;;;;;;16.53;28.56;100334.56;5025220;28;20034;-81
2022/04/19 12:16:30;;;;;;;4.35;1.70;;;;;;;17.28;27.68;100318.56;5011529;28;20062;-81
2022/04/19 12:18:59;;;;;;;4.72;1.45;;;;;;;16.93;27.08;100335.00;4999451;28;20189;-80